Tiempo atmosférico en la estación meteorológica de Barbate, Cádiz (4 m.)



Fecha
DESCASC
Temp. máxima en grados centígrados (hora)
DESCASC
Temp. mínima en grados centígrados (hora)
DESCASC
Temp. media en grados centígrados
DESCASC
Racha de viento máxima en m/sg (hora)
DESCASC
Velocidad máxima media en intervalos de 10 minutos(hora)
DESCASC
Precipitaciones diarias en mm
DESCASC
Precipitaciones de 00:00 a 06:00 en mm
DESCASC
Precipitaciones de 06:00 a 12:00 en mm
DESCASC
Precipitaciones de 12:00 a 18:00 en mm
DESCASC
Precipitaciones de 18:00 a 24:00 en mm
DESCASC
08-12-2019 -- (--) -- (--) -- -- (--) -- (--) -- 0 0 0 --
07-12-2019 20.8 (13:50) 11.1 (23:00) 15.9 7.5 (04:30) 5.28 (11:20) 0 0 0 0 0
06-12-2019 18.6 (12:20) 14.8 (19:40) 16.7 15.28 (02:20) 10 (02:10) 0.2 0.2 0 0 0
05-12-2019 18 (13:40) 8.2 (00:00) 13.1 12.5 (23:20) 8.06 (23:20) 0 0 0 0 0
04-12-2019 16.5 (12:50) 9.1 (00:00) 12.8 10.28 (13:10) 5.83 (13:20) 0 0 0 0 0
03-12-2019 18.7 (15:50) 11.4 (00:00) 15.1 8.61 (02:10) 6.39 (02:10) 0 0 0 0 0
02-12-2019 17.4 (14:00) 10.5 (00:00) 13.9 11.94 (15:50) 8.06 (18:00) 10.4 0 3.2 1.2 6
01-12-2019 18.7 (14:00) 13.5 (00:00) 16.1 9.17 (15:20) 6.11 (17:50) 5.2 3 0.2 2 0
30-11-2019 17.7 (14:50) 8.9 (00:00) 13.3 6.11 (15:20) 5.28 (15:40) 0 0 0 0 0
29-11-2019 21.7 (15:20) 10.5 (00:00) 16.1 7.22 (14:30) 4.17 (13:40) 0 0 0 0 0
28-11-2019 -- (--) -- (--) -- 5.83 (15:40) 5 (15:50) 0.2 0.2 0 0 0
27-11-2019 16.7 (00:50) 13.5 (00:00) 15.1 8.89 (02:10) 6.39 (02:10) 3 2.8 0.2 0 0
26-11-2019 18.7 (13:00) 16.3 (00:00) 17.5 7.22 (21:50) 5.28 (23:59) 1.8 0 1.8 0 0
25-11-2019 18.6 (15:40) 9.3 (00:00) 14 6.39 (13:20) 5.56 (13:30) 0 0 0 0 0
24-11-2019 17.3 (16:00) 8.1 (00:00) 12.7 7.78 (14:40) 4.72 (14:40) 0 0 0 0 0
23-11-2019 17.1 (13:50) 13 (00:00) 15.1 13.06 (06:40) 7.78 (12:20) 0.2 0 0.2 0 0
22-11-2019 17.7 (18:10) 15.4 (00:00) 16.6 19.17 (20:20) 15 (20:20) 16.2 9.2 3.6 0.2 3.2
21-11-2019 15.8 (11:40) 12 (00:00) 13.9 16.11 (11:00) 10 (12:40) 34.6 3.2 8.8 22.6 0
20-11-2019 14.8 (17:10) 6.8 (00:00) 10.8 17.5 (13:20) 14.17 (13:10) 2.6 0 0.6 2 0
19-11-2019 16.5 (13:50) 6.6 (00:00) 11.5 7.22 (12:40) 6.11 (12:40) 0 0 0 0 0
18-11-2019 16.6 (16:20) 9.6 (00:00) 13.1 16.39 (03:40) 9.17 (03:50) 5 5 0 0 0
17-11-2019 16 (20:40) 5.1 (00:00) 10.5 14.44 (14:30) 11.39 (14:00) 3.2 0 0 3.2 0
16-11-2019 14.8 (12:50) 4.9 (00:00) 9.9 9.72 (14:30) 7.5 (14:50) 0 0 0 0 0
15-11-2019 14.6 (15:50) 9.7 (00:00) 12.2 14.44 (13:40) 8.89 (15:20) 0 0 0 0 0
14-11-2019 17.2 (11:50) 12.2 (00:00) 14.7 14.72 (12:50) 10 (12:50) 2.7 0 0 2.7 0
13-11-2019 18.6 (15:10) 13 (00:00) 15.8 11.39 (14:10) 6.94 (14:10) 0.8 0 0.8 0 0
12-11-2019 19.3 (13:50) 11.2 (00:00) 15.2 9.17 (14:30) 7.22 (14:30) 0 0 0 0 0
11-11-2019 17.9 (15:50) 13 (08:10) 15.4 10.56 (01:20) 6.67 (01:10) 0.6 0.2 0.4 0 0

Gráficas

Temp. máximas Temp. mínimas Temp. medias Precipitaciones Rachas de viento máximas Velocidades máximas media en intervalos de 10 minutos

Datos horarios

Fecha y hora oficial Temperatura (ºC) Velocidad del viento (km/h) Dirección del viento Racha (km/h) Dirección de racha Precipitación (mm) Presión (hPa) Tendencia (hPa) Humedad (%)
2019-12-10 23:00:00 9.7 7 Norte 8 Norte 0 -- -- 99
2019-12-10 22:00:00 11.3 0 Calma 5 Este 0 -- -- 99
2019-12-10 21:00:00 11.7 3 Norte 5 Nordeste 0 -- -- 98
2019-12-10 20:00:00 12.1 3 Sudeste 7 Este 0 -- -- 97
2019-12-10 19:00:00 13.2 2 Noroeste 11 Sudoeste 0 -- -- 91
2019-12-10 18:00:00 14.2 10 Sudoeste 15 Sudoeste 0 -- -- 91
2019-12-10 17:00:00 15 14 Sudoeste 18 Sudoeste 0 -- -- 89
2019-12-10 16:00:00 15.5 14 Sudoeste 18 Sudoeste 0 -- -- 88
2019-12-10 15:00:00 15.7 13 Oeste 16 Oeste 0 -- -- 90
2019-12-10 14:00:00 16.9 10 Sudoeste 15 Sudoeste 0 -- -- 99
2019-12-10 13:00:00 14.8 6 Sur 9 Sur 0 -- -- 100
2019-12-10 12:00:00 10.6 6 Norte 12 Nordeste 0 -- -- 100
2019-12-10 11:00:00 8.1 6 Norte 14 Nordeste 0 -- -- 100
2019-12-10 10:00:00 6.7 9 Norte 14 Nordeste 0 -- -- 100
2019-12-10 09:00:00 6.4 10 Norte 14 Norte 0 -- -- 100
2019-12-10 08:00:00 6.7 9 Norte 14 Norte 0 -- -- 100
2019-12-10 07:00:00 6.8 7 Norte 14 Norte 0 -- -- 100
2019-12-10 06:00:00 7.1 8 Nordeste 11 Nordeste 0 -- -- 100
2019-12-10 05:00:00 8.3 5 Norte 8 Nordeste 0 -- -- 100
2019-12-10 04:00:00 9.1 7 Nordeste 8 Nordeste 0 -- -- 100
2019-12-10 03:00:00 9.9 4 Norte 9 Nordeste 0 -- -- 100
2019-12-10 02:00:00 11.2 4 Nordeste 5 Norte 0 -- -- 100
2019-12-10 01:00:00 11.1 4 Este 6 Este 0 -- -- 99
2019-12-10 00:00:00 12.1 2 Noroeste 5 Nordeste 0 -- -- 97
2019-12-09 23:00:00 13.1 6 Noroeste 14 Oeste 0 -- -- 93
2019-12-09 22:00:00 13.4 9 Oeste 12 Oeste 0 -- -- 95
2019-12-09 21:00:00 14.2 6 Noroeste 9 Noroeste 0 -- -- 91
2019-12-09 20:00:00 15.4 7 Noroeste 14 Noroeste 0 -- -- 91
2019-12-09 19:00:00 16.5 9 Noroeste 14 Noroeste 0 -- -- 89
2019-12-09 18:00:00 17.1 12 Noroeste 22 Noroeste 0 -- -- 90
2019-12-09 17:00:00 17.4 13 Noroeste 20 Noroeste 0 -- -- 89
2019-12-09 16:00:00 17.9 14 Noroeste 21 Noroeste 0 -- -- 86
2019-12-09 15:00:00 17.8 13 Oeste 21 Oeste 0 -- -- 86
2019-12-09 14:00:00 18.8 5 Noroeste 16 Norte 0 -- -- 81
2019-12-09 13:00:00 18.4 10 Norte 18 Norte 0 -- -- 82
2019-12-09 12:00:00 17.7 9 Norte 18 Norte 0 -- -- 90
2019-12-09 11:00:00 13.9 6 Nordeste 12 Nordeste 0 -- -- 100
2019-12-09 10:00:00 11.2 6 Norte 11 Norte 0 -- -- 100
2019-12-09 09:00:00 9.8 7 Norte 10 Norte 0 -- -- 100
2019-12-09 08:00:00 9.5 7 Norte 9 Norte 0 -- -- 100
2019-12-09 07:00:00 9.6 6 Norte 10 Norte 0 -- -- 100
2019-12-09 06:00:00 9.5 8 Norte 12 Norte 0 -- -- 100
2019-12-09 05:00:00 9.8 8 Nordeste 10 Norte 0 -- -- 100
2019-12-09 04:00:00 10.4 7 Norte 9 Norte 0 -- -- 100
2019-12-09 03:00:00 10.6 5 Norte 11 Norte 0 -- -- 100
2019-12-09 02:00:00 10.9 6 Norte 10 Norte 0 -- -- 100
2019-12-09 01:00:00 11.2 7 Norte 10 Norte 0 -- -- 100
2019-12-09 00:00:00 10.6 6 Norte 9 Norte 0 -- -- 100
2019-12-08 23:00:00 11.5 5 Norte 7 Norte 0 -- -- 99
2019-12-08 22:00:00 12.9 5 Noroeste 7 Noroeste 0 -- -- 97
2019-12-08 21:00:00 12.5 6 Este 9 Este 0 -- -- 96
2019-12-08 20:00:00 13.3 3 Noroeste 10 Noroeste 0 -- -- 94
2019-12-08 19:00:00 13.9 4 Noroeste 12 Oeste 0 -- -- 90
2019-12-08 18:00:00 15.1 7 Noroeste 23 Oeste 0 -- -- 88
2019-12-08 17:00:00 16.5 20 Oeste 24 Oeste 0 -- -- 86
2019-12-08 16:00:00 17 21 Oeste 26 Sudoeste 0 -- -- 85
2019-12-08 15:00:00 17.5 19 Oeste 23 Oeste 0 -- -- 86
2019-12-08 14:00:00 18.3 14 Sudoeste 17 Sudoeste 0 -- -- 85
2019-12-08 13:00:00 17.8 10 Sur 13 Sur 0 -- -- 89
2019-12-08 12:00:00 16.3 2 Sur 8 Nordeste 0 -- -- 100
2019-12-08 11:00:00 11.6 6 Nordeste 11 Norte 0 -- -- 100
2019-12-08 10:00:00 9.5 8 Nordeste 14 Norte 0 -- -- 100
2019-12-08 09:00:00 7.5 8 Norte 11 Norte 0 -- -- 100
2019-12-08 08:00:00 7.1 10 Nordeste 12 Norte 0 -- -- 100
2019-12-08 07:00:00 7.4 10 Nordeste 13 Nordeste 0 -- -- 100
2019-12-08 06:00:00 8.8 9 Norte 13 Norte 0 -- -- 100
2019-12-08 05:00:00 9.4 8 Norte 12 Norte 0 -- -- 100
2019-12-08 04:00:00 9.7 8 Norte 14 Norte 0 -- -- 100
2019-12-08 03:00:00 9.7 10 Nordeste 12 Nordeste 0 -- -- 100
2019-12-08 02:00:00 10.2 9 Norte 13 Norte 0 -- -- 100
2019-12-08 01:00:00 10.7 8 Norte 11 Norte 0 -- -- 100
2019-12-08 00:00:00 11.2 6 Norte 10 Norte 0 -- -- 100
2019-12-07 23:00:00 11.1 8 Nordeste 9 Nordeste 0 -- -- 97
2019-12-07 22:00:00 12.5 6 Norte 8 Norte 0 -- -- 96
2019-12-07 21:00:00 12.8 5 Norte 8 Norte 0 -- -- 93
2019-12-07 20:00:00 14.3 4 Nordeste 9 Norte 0 -- -- 89
2019-12-07 19:00:00 15.8 4 Norte 10 Norte 0 -- -- 84
2019-12-07 18:00:00 17.4 7 Este 15 Este 0 -- -- 77
2019-12-07 17:00:00 18.9 12 Este 19 Este 0 -- -- 70
2019-12-07 16:00:00 19.8 9 Este 20 Este 0 -- -- 68
2019-12-07 15:00:00 18.9 13 Este 19 Este 0 -- -- 71
2019-12-07 14:00:00 20.7 8 Este 19 Sudoeste 0 -- -- 67
2019-12-07 13:00:00 19.1 15 Sudoeste 22 Sur 0 -- -- 77
2019-12-07 12:00:00 18.2 14 Nordeste 27 Nordeste 0 -- -- 77
2019-12-07 11:00:00 17.4 13 Norte 19 Norte 0 -- -- 78
2019-12-07 10:00:00 15 8 Norte 14 Nordeste 0 -- -- 89
2019-12-07 09:00:00 12.4 9 Nordeste 24 Norte 0 -- -- 95
2019-12-07 08:00:00 12.6 12 Nordeste 21 Nordeste 0 -- -- 95
2019-12-07 07:00:00 12.4 7 Nordeste 10 Nordeste 0 -- -- 95
2019-12-07 06:00:00 13.5 7 Norte 22 Nordeste 0 -- -- 92
2019-12-07 05:00:00 14.6 18 Este 27 Este 0 -- -- 91
2019-12-07 04:00:00 15 13 Nordeste 22 Este 0 -- -- 90
2019-12-07 03:00:00 14.7 15 Nordeste 19 Nordeste 0 -- -- 90
2019-12-07 02:00:00 14.9 14 Nordeste 21 Este 0 -- -- 89
2019-12-07 01:00:00 15.2 10 Nordeste 15 Nordeste 0 -- -- 86
2019-12-07 00:00:00 15.3 8 Nordeste 20 Este 0 -- -- 85
2019-12-06 23:00:00 15.3 9 Nordeste 18 Nordeste 0 -- -- 85
2019-12-06 22:00:00 15.3 13 Nordeste 23 Nordeste 0 -- -- 85
2019-12-06 21:00:00 15.2 10 Nordeste 26 Nordeste 0 -- -- 85
2019-12-06 20:00:00 14.8 7 Nordeste 28 Este 0 -- -- 87
2019-12-06 19:00:00 15.3 16 Este 35 Este 0 -- -- 85
2019-12-06 18:00:00 16.2 13 Este 28 Este 0 -- -- 80
2019-12-06 17:00:00 17.1 14 Este 30 Este 0 -- -- 78
2019-12-06 16:00:00 17.3 18 Este 33 Sudeste 0 -- -- 78
2019-12-06 15:00:00 17.9 19 Este 41 Este 0 -- -- 76
2019-12-06 14:00:00 18.1 21 Este 36 Este 0 -- -- 76
2019-12-06 13:00:00 18.4 24 Este 49 Este 0 -- -- 75
2019-12-06 12:00:00 18.2 18 Este 33 Este 0 -- -- 78
2019-12-06 11:00:00 17 13 Nordeste 22 Nordeste 0 -- -- 80
2019-12-06 10:00:00 16.7 10 Norte 23 Nordeste 0 -- -- 80
2019-12-06 09:00:00 15.5 16 Nordeste 36 Nordeste 0 -- -- 82
2019-12-06 08:00:00 15.3 8 Noroeste 36 Este 0 -- -- 83
2019-12-06 07:00:00 15.2 13 Nordeste 49 Este 0 -- -- 83
2019-12-06 06:00:00 15.3 22 Este 41 Sudeste 0 -- -- 83
2019-12-06 05:00:00 15.4 27 Este 48 Este 0 -- -- 83
2019-12-06 04:00:00 15.3 27 Este 45 Este 0 -- -- 83
2019-12-06 03:00:00 15.4 26 Este 55 Este 0.2 -- -- 82
2019-12-06 02:00:00 15.4 32 Sudeste 51 Sudeste 0 -- -- 84
2019-12-06 01:00:00 15.3 26 Este 45 Sudeste 0 -- -- 84
2019-12-06 00:00:00 15.3 22 Este 45 Sudeste 0 -- -- 84
2019-12-05 23:00:00 15.2 24 Sudeste 39 Este 0 -- -- 86
2019-12-05 22:00:00 15.1 14 Este 32 Este 0 -- -- 85
2019-12-05 21:00:00 14.8 12 Nordeste 22 Nordeste 0 -- -- 87
2019-12-05 20:00:00 14.5 12 Nordeste 18 Nordeste 0 -- -- 84
2019-12-05 19:00:00 14.4 14 Nordeste 23 Este 0 -- -- 76
2019-12-05 18:00:00 15.4 16 Nordeste 31 Este 0 -- -- 77
2019-12-05 17:00:00 16.4 20 Este 30 Este 0 -- -- 74
2019-12-05 16:00:00 16.6 18 Este 30 Este 0 -- -- 78
2019-12-05 15:00:00 16.9 18 Este 24 Este 0 -- -- 76
2019-12-05 14:00:00 17.3 7 Sudoeste 14 Sudoeste 0 -- -- 72
2019-12-05 13:00:00 16.1 11 Nordeste 16 Nordeste 0 -- -- 69
2019-12-05 12:00:00 14.4 9 Norte 21 Nordeste 0 -- -- 73
2019-12-05 11:00:00 13 15 Norte 24 Norte 0 -- -- 87
2019-12-05 10:00:00 10.5 3 Noroeste 16 Norte 0 -- -- 100
2019-12-05 09:00:00 8.6 10 Norte 17 Norte 0 -- -- 100
2019-12-05 08:00:00 8.6 8 Norte 15 Nordeste 0 -- -- 100
2019-12-05 07:00:00 9.3 7 Nordeste 12 Nordeste 0 -- -- 100
2019-12-05 06:00:00 9.9 5 Nordeste 11 Norte 0 -- -- 98
2019-12-05 05:00:00 10.7 5 Norte 9 Norte 0 -- -- 97
2019-12-05 04:00:00 10.9 5 Norte 9 Norte 0 -- -- 98
2019-12-05 03:00:00 11.1 4 Norte 11 Norte 0 -- -- 98
2019-12-05 02:00:00 11.1 8 Norte 13 Norte 0 -- -- 98
2019-12-05 01:00:00 11.3 6 Norte 12 Nordeste 0 -- -- 98
2019-12-05 00:00:00 11.3 5 Norte 10 Norte 0 -- -- 97
2019-12-04 23:00:00 11.3 3 Norte 12 Nordeste 0 -- -- 97
2019-12-04 22:00:00 11.7 4 Norte 7 Nordeste 0 -- -- 94
2019-12-04 21:00:00 11.7 4 Nordeste 6 Norte 0 -- -- 94
2019-12-04 20:00:00 12 4 Norte 6 Nordeste 0 -- -- 91
2019-12-04 19:00:00 12.2 5 Este 10 Nordeste 0 -- -- 86
2019-12-04 18:00:00 13.7 0 Calma 17 Oeste 0 -- -- 75
2019-12-04 17:00:00 14.3 12 Oeste 24 Sudoeste 0 -- -- 72
2019-12-04 16:00:00 14.4 19 Oeste 27 Oeste 0 -- -- 72
2019-12-04 15:00:00 15.1 18 Oeste 28 Noroeste 0 -- -- 67
2019-12-04 14:00:00 16.3 13 Noroeste 37 Oeste 0 -- -- 71
2019-12-04 13:00:00 16.4 17 Oeste 27 Noroeste 0 -- -- 71
2019-12-04 12:00:00 15.7 6 Noroeste 19 Noroeste 0 -- -- 69
2019-12-04 11:00:00 14.4 11 Noroeste 27 Noroeste 0 -- -- 79
2019-12-04 10:00:00 13.3 16 Noroeste 27 Noroeste 0 -- -- 96
2019-12-04 09:00:00 11.8 10 Noroeste 22 Noroeste 0 -- -- 100
2019-12-04 08:00:00 9.4 8 Norte 10 Nordeste 0 -- -- 100
2019-12-04 07:00:00 9.2 6 Nordeste 11 Norte 0 -- -- 100
2019-12-04 06:00:00 9.6 9 Norte 12 Norte 0 -- -- 100
2019-12-04 05:00:00 10.9 6 Nordeste 8 Norte 0 -- -- 100
2019-12-04 04:00:00 12.1 2 Norte 9 Oeste 0 -- -- 98
2019-12-04 03:00:00 13.2 6 Oeste 10 Oeste 0 -- -- 98
2019-12-04 02:00:00 12.3 3 Nordeste 7 Este 0 -- -- 97
2019-12-04 01:00:00 12.5 2 Nordeste 10 Este 0 -- -- 96
2019-12-04 00:00:00 12.6 4 Este 10 Este 0 -- -- 96
2019-12-03 23:00:00 13.3 5 Norte 9 Norte 0 -- -- 89
2019-12-03 22:00:00 14 4 Noroeste 9 Norte 0 -- -- 88
2019-12-03 21:00:00 14.7 5 Norte 8 Este 0 -- -- 86
2019-12-03 20:00:00 14.8 3 Este 9 Noroeste 0 -- -- 89
2019-12-03 19:00:00 15.6 7 Norte 15 Norte 0 -- -- 83
2019-12-03 18:00:00 16.3 8 Norte 13 Norte 0 -- -- 83
2019-12-03 17:00:00 16.5 7 Sudoeste 14 Oeste 0 -- -- 87
2019-12-03 16:00:00 17.8 11 Sudoeste 13 Sudoeste 0 -- -- 78
2019-12-03 15:00:00 16.7 3 Nordeste 15 Nordeste 0 -- -- 81
2019-12-03 14:00:00 15.4 9 Nordeste 15 Nordeste 0 -- -- 85
2019-12-03 13:00:00 15.4 8 Nordeste 15 Nordeste 0 -- -- 86
2019-12-03 12:00:00 15.1 7 Norte 19 Norte 0 -- -- 88
2019-12-03 11:00:00 12.6 9 Nordeste 13 Nordeste 0 -- -- 99
2019-12-03 10:00:00 11.6 4 Norte 13 Norte 0 -- -- 100
2019-12-03 09:00:00 11.4 5 Norte 13 Norte 0 -- -- 100
2019-12-03 08:00:00 11.4 8 Norte 15 Norte 0 -- -- 100
2019-12-03 07:00:00 11.6 8 Nordeste 12 Nordeste 0 -- -- 100
2019-12-03 06:00:00 12.1 6 Norte 18 Nordeste 0 -- -- 99
2019-12-03 05:00:00 12.8 10 Norte 22 Nordeste 0 -- -- 99
2019-12-03 04:00:00 12.7 19 Nordeste 29 Nordeste 0 -- -- 100
2019-12-03 03:00:00 12.6 21 Nordeste 31 Nordeste 0 -- -- 98
2019-12-03 02:00:00 13.1 22 Nordeste 27 Nordeste 0 -- -- 98
2019-12-03 01:00:00 12.5 10 Norte 25 Nordeste 0 -- -- 99
2019-12-03 00:00:00 12.8 14 Nordeste 24 Nordeste 0 -- -- 100
2019-12-02 23:00:00 12.3 7 Norte 17 Nordeste 0.6 -- -- 100
2019-12-02 22:00:00 12.4 7 Nordeste 13 Norte 3.6 -- -- 100
2019-12-02 21:00:00 12.7 14 Este 39 Este 1.8 -- -- 96
2019-12-02 20:00:00 13.2 21 Este 37 Este 0 -- -- 90
2019-12-02 19:00:00 13.3 24 Este 38 Este 0 -- -- 90
2019-12-02 18:00:00 13.6 29 Este 43 Este 0 -- -- 87
2019-12-02 17:00:00 12.9 22 Este 39 Este 0.4 -- -- 91
2019-12-02 16:00:00 13 28 Este 43 Este 0.4 -- -- 94
2019-12-02 15:00:00 13.6 21 Este 32 Este 0.4 -- -- 92
2019-12-02 14:00:00 17.4 16 Sudeste 26 Sudeste 0 -- -- 80
2019-12-02 13:00:00 15.9 22 Sur 30 Sur 0 -- -- 88
2019-12-02 12:00:00 13.8 9 Sudeste 28 Sur 0 -- -- 93
2019-12-02 11:00:00 14.4 26 Sur 32 Sur 0 -- -- 100
2019-12-02 10:00:00 11.7 5 Norte 9 Norte 0.2 -- -- 100
2019-12-02 09:00:00 11.4 5 Norte 10 Norte 0.2 -- -- 100
2019-12-02 08:00:00 11.1 7 Nordeste 10 Norte 0 -- -- 100
2019-12-02 07:00:00 11.4 5 Nordeste 12 Norte 2.8 -- -- 100
2019-12-02 06:00:00 11 5 Norte 10 Norte 0 -- -- 100
2019-12-02 05:00:00 11 6 Norte 8 Norte 0 -- -- 100
2019-12-02 04:00:00 12.2 4 Norte 8 Norte 0 -- -- 100
2019-12-02 03:00:00 12.3 3 Nordeste 10 Noroeste 0 -- -- 97
2019-12-02 02:00:00 13.3 5 Noroeste 10 Oeste 0 -- -- 94
2019-12-02 01:00:00 13.2 3 Norte 10 Noroeste 0 -- -- 94
2019-12-02 00:00:00 13.7 8 Noroeste 21 Noroeste 0 -- -- 93
2019-12-01 23:00:00 14.1 10 Oeste 20 Oeste 0 -- -- 95
2019-12-01 22:00:00 14.1 9 Oeste 13 Oeste 0 -- -- 94
2019-12-01 21:00:00 14.1 9 Oeste 15 Oeste 0 -- -- 96
2019-12-01 20:00:00 14.2 7 Oeste 18 Oeste 0 -- -- 95
2019-12-01 19:00:00 15.1 14 Oeste 27 Oeste 0 -- -- 94
2019-12-01 18:00:00 14.9 21 Oeste 30 Oeste 0.6 -- -- 97
2019-12-01 17:00:00 15.4 16 Oeste 28 Oeste 0.2 -- -- 94
2019-12-01 16:00:00 15.4 15 Oeste 33 Noroeste 1.2 -- -- 93
2019-12-01 15:00:00 17.5 12 Sudoeste 17 Sudoeste 0 -- -- 89
2019-12-01 14:00:00 18.7 11 Sudoeste 18 Sudoeste 0 -- -- 84
2019-12-01 13:00:00 17.1 13 Sudoeste 23 Oeste 0 -- -- 86
2019-12-01 12:00:00 16.4 9 Oeste 12 Oeste 0 -- -- 86
2019-12-01 11:00:00 15.4 5 Noroeste 18 Noroeste 0 -- -- 88
2019-12-01 10:00:00 14.9 10 Noroeste 17 Noroeste 0 -- -- 100
2019-12-01 09:00:00 14.7 4 Noroeste 10 Oeste 0 -- -- 100
2019-12-01 08:00:00 14.4 2 Noroeste 10 Noroeste 0 -- -- 100
2019-12-01 07:00:00 14.1 3 Este 8 Norte 0.2 -- -- 100
2019-12-01 06:00:00 14 7 Norte 20 Norte 2 -- -- 100
2019-12-01 05:00:00 14.7 0 Calma 27 Noroeste 0.2 -- -- 100
2019-12-01 04:00:00 15.4 13 Noroeste 29 Noroeste 0.8 -- -- 99
2019-12-01 03:00:00 16.2 14 Oeste 23 Oeste 0 -- -- 98
2019-12-01 02:00:00 16.3 16 Oeste 23 Oeste 0 -- -- 99
2019-12-01 01:00:00 15.5 16 Oeste 18 Oeste 0 -- -- 100
2019-12-01 00:00:00 13.5 3 Sur 7 Sudeste 0 -- -- 100
2019-11-30 23:00:00 13.6 2 Sudeste 10 Este 0 -- -- 99
2019-11-30 22:00:00 13.5 5 Este 8 Nordeste 0 -- -- 97
2019-11-30 21:00:00 14.3 0 Calma 16 Oeste 0 -- -- 94
2019-11-30 20:00:00 15.3 11 Oeste 18 Oeste 0 -- -- 89
2019-11-30 19:00:00 15.4 13 Noroeste 17 Noroeste 0 -- -- 85
2019-11-30 18:00:00 16.8 9 Noroeste 19 Oeste 0 -- -- 81
2019-11-30 17:00:00 16.9 12 Oeste 19 Oeste 0 -- -- 91
2019-11-30 16:00:00 16.9 15 Oeste 22 Oeste 0 -- -- 91
2019-11-30 15:00:00 17.6 13 Sudoeste 18 Sudoeste 0 -- -- 88
2019-11-30 14:00:00 16.7 14 Sudoeste 16 Sudoeste 0 -- -- 88
2019-11-30 13:00:00 16.5 8 Sudoeste 12 Sudoeste 0 -- -- 88
2019-11-30 12:00:00 15.1 6 Oeste 9 Oeste 0 -- -- 96
2019-11-30 11:00:00 12.4 5 Norte 10 Nordeste 0 -- -- 100
2019-11-30 10:00:00 10.1 8 Nordeste 10 Nordeste 0 -- -- 100
2019-11-30 09:00:00 9.1 5 Norte 10 Norte 0 -- -- 100
2019-11-30 08:00:00 9.1 5 Norte 10 Norte 0 -- -- 100
2019-11-30 07:00:00 9.4 6 Nordeste 12 Norte 0 -- -- 100
2019-11-30 06:00:00 10.1 4 Norte 10 Norte 0 -- -- 100
2019-11-30 05:00:00 10.5 5 Nordeste 9 Norte 0 -- -- 100
2019-11-30 04:00:00 10.9 5 Norte 9 Norte 0 -- -- 100
2019-11-30 03:00:00 11.2 6 Norte 10 Norte 0 -- -- 100
2019-11-30 02:00:00 11.1 7 Norte 10 Nordeste 0 -- -- 98
2019-11-30 01:00:00 13.1 4 Norte 6 Norte 0 -- -- 97
2019-11-30 00:00:00 13 3 Norte 6 Norte 0 -- -- 96
2019-11-29 23:00:00 13.3 0 Calma 9 Nordeste 0 -- -- 96
2019-11-29 22:00:00 13.8 5 Nordeste 13 Nordeste 0 -- -- 94
2019-11-29 21:00:00 14.6 6 Norte 10 Norte 0 -- -- 93
2019-11-29 20:00:00 15.6 4 Este 6 Este 0 -- -- 92
2019-11-29 19:00:00 17 4 Noroeste 10 Noroeste 0 -- -- 85
2019-11-29 18:00:00 19 8 Noroeste 20 Norte 0 -- -- 77
2019-11-29 17:00:00 21 12 Norte 20 Norte 0 -- -- 66
2019-11-29 16:00:00 21.6 10 Norte 24 Norte 0 -- -- 63
2019-11-29 15:00:00 21.5 11 Norte 26 Noroeste 0 -- -- 63
2019-11-29 14:00:00 20.9 13 Norte 23 Norte 0 -- -- 65
2019-11-29 13:00:00 20.1 11 Noroeste 21 Noroeste 0 -- -- 70
2019-11-29 12:00:00 18.5 8 Norte 15 Norte 0 -- -- 80
2019-11-29 11:00:00 16.7 4 Sur 8 Sur 0 -- -- 99
2019-11-29 10:00:00 14.1 3 Sur 5 Sudoeste 0 -- -- 100
2019-11-29 09:00:00 11.4 0 Calma 4 Norte 0 -- -- 100
2019-11-29 08:00:00 10.7 4 Nordeste 7 Nordeste 0 -- -- 100
2019-11-29 07:00:00 10.5 4 Nordeste 8 Nordeste 0 -- -- 100
2019-11-29 06:00:00 10.8 5 Norte 9 Norte 0 -- -- 100
2019-11-29 05:00:00 10.6 6 Norte 10 Norte 0 -- -- 100
2019-11-29 04:00:00 11.4 4 Norte 8 Norte 0 -- -- 100
2019-11-29 03:00:00 11.4 6 Norte 9 Norte 0 -- -- 100
2019-11-29 02:00:00 11.5 5 Norte 8 Norte 0 -- -- 100
2019-11-29 01:00:00 11.8 6 Norte 8 Nordeste 0 -- -- 100
2019-11-29 00:00:00 12.5 5 Norte 9 Norte 0 -- -- 100
2019-11-28 23:00:00 12.6 6 Norte 8 Norte 0 -- -- 99
2019-11-28 22:00:00 13 6 Nordeste 11 Norte 0 -- -- 98
2019-11-28 21:00:00 14.3 6 Norte 15 Noroeste 0 -- -- 95
2019-11-28 20:00:00 15 12 Noroeste 16 Norte 0 -- -- 93
2019-11-28 19:00:00 15.7 3 Nordeste 17 Noroeste 0 -- -- 91
2019-11-28 18:00:00 16.6 13 Oeste 19 Oeste 0 -- -- 91
2019-11-28 17:00:00 16.8 17 Oeste 21 Oeste 0 -- -- 95
2019-11-28 16:00:00 17.3 17 Oeste 21 Oeste 0 -- -- 97
2019-11-28 15:00:00 17.9 14 Sudoeste 18 Sudoeste 0 -- -- 97
2019-11-28 14:00:00 16.9 8 Oeste 12 Oeste 0 -- -- 100
2019-11-28 13:00:00 16.9 4 Oeste 10 Nordeste 0 -- -- 100
2019-11-28 12:00:00 14.6 6 Norte 13 Nordeste 0 -- -- 100
2019-11-28 11:00:00 13.3 9 Norte 18 Norte 0 -- -- 100
2019-11-28 10:00:00 12.3 10 Norte 17 Norte 0 -- -- 100
2019-11-28 09:00:00 12.1 10 Nordeste 20 Noroeste 0 -- -- 100
2019-11-28 08:00:00 12.5 6 Norte 12 Norte 0 -- -- 100
2019-11-28 07:00:00 12.2 7 Norte 12 Norte 0 -- -- 100
2019-11-28 06:00:00 11.7 7 Norte 11 Norte 0 -- -- 100
2019-11-28 05:00:00 11.2 8 Norte 15 Norte 0.2 -- -- 100
2019-11-28 04:00:00 11.3 9 Norte 14 Norte 0 -- -- 100
2019-11-28 03:00:00 12.1 8 Norte 11 Norte 0 -- -- 100
2019-11-28 02:00:00 12.4 4 Nordeste 9 Norte 0 -- -- 100
2019-11-28 01:00:00 13.2 4 Norte 6 Norte 0 -- -- 100
2019-11-28 00:00:00 13.9 0 Calma 8 Nordeste 0 -- -- 100
2019-11-27 23:00:00 13.6 6 Nordeste 8 Nordeste 0 -- -- 100
2019-11-27 22:00:00 14.8 0 Calma 9 Oeste 0 -- -- 100
2019-11-27 21:00:00 15.5 6 Oeste 13 Oeste 0 -- -- 100
2019-11-27 20:00:00 15.8 9 Oeste 16 Oeste 0 -- -- 100
2019-11-27 19:00:00 15.9 11 Oeste 15 Oeste 0 -- -- 100
2019-11-27 18:00:00 16.5 9 Oeste 19 Oeste 0 -- -- 100
2019-11-27 17:00:00 16.5 10 Oeste 16 Oeste 0 -- -- 100
2019-11-27 16:00:00 16.6 14 Oeste 18 Oeste 0 -- -- 100
2019-11-27 15:00:00 16.7 9 Sudoeste 15 Oeste 0 -- -- 100
2019-11-27 14:00:00 16.4 12 Oeste 19 Oeste 0 -- -- 100
2019-11-27 06:00:00 -- -- -- -- -- -- -- -- --
2019-11-27 05:00:00 15.8 8 Oeste 13 Oeste 0.6 -- -- 100
2019-11-27 04:00:00 16.1 6 Oeste 29 Oeste 1.2 -- -- 100
2019-11-27 03:00:00 16.4 15 Oeste 32 Sudoeste 0.2 -- -- 100
2019-11-27 02:00:00 16.5 18 Sudoeste 27 Sudoeste 0.4 -- -- 100
2019-11-27 01:00:00 16.6 12 Oeste 21 Sudoeste 0 -- -- 100
2019-11-27 00:00:00 16.5 19 Sudoeste 22 Sudoeste 0 -- -- 100
2019-11-26 23:00:00 16.5 10 Oeste 22 Oeste 0 -- -- 100
2019-11-26 22:00:00 16.8 13 Oeste 26 Oeste 0 -- -- 100
2019-11-26 21:00:00 16.7 10 Oeste 15 Oeste 0 -- -- 100
2019-11-26 20:00:00 16.8 11 Oeste 17 Oeste 0 -- -- 100
2019-11-26 19:00:00 17.2 13 Oeste 19 Oeste 0 -- -- 100
2019-11-26 18:00:00 17 6 Sudoeste 13 Oeste 0 -- -- 100
2019-11-26 17:00:00 17.3 10 Oeste 20 Oeste 0 -- -- 100
2019-11-26 16:00:00 17.5 7 Oeste 13 Sudoeste 0 -- -- 98
2019-11-26 15:00:00 18.3 10 Sudoeste 15 Sudoeste 0 -- -- 97
2019-11-26 14:00:00 18.1 10 Sudoeste 17 Sudoeste 0 -- -- 100
2019-11-26 13:00:00 18.7 10 Sur 13 Sur 0 -- -- 100
2019-11-26 12:00:00 17.7 3 Sudoeste 10 Oeste 0 -- -- 100
2019-11-26 11:00:00 16.9 6 Oeste 8 Oeste 0 -- -- 100
2019-11-26 10:00:00 16.9 3 Este 8 Nordeste 0.2 -- -- 100
2019-11-26 09:00:00 16.4 4 Nordeste 6 Nordeste 1.2 -- -- 100
2019-11-26 08:00:00 16.4 2 Nordeste 8 Nordeste 0.2 -- -- 100
2019-11-26 07:00:00 16.8 2 Noroeste 5 Norte 0.2 -- -- 100
2019-11-26 06:00:00 16.5 0 Calma 6 Oeste 0 -- -- 100
2019-11-26 05:00:00 16.4 2 Sudoeste 4 Sudoeste 0 -- -- 100
2019-11-26 04:00:00 16.6 0 Calma 8 Oeste 0 -- -- 100
2019-11-26 03:00:00 16.5 7 Oeste 15 Oeste 0 -- -- 100
2019-11-26 02:00:00 16.8 10 Oeste 18 Oeste 0 -- -- 100
2019-11-26 01:00:00 16.9 10 Oeste 17 Oeste 0 -- -- 100
2019-11-26 00:00:00 16.6 10 Sudoeste 16 Sudoeste 0 -- -- 100
2019-11-25 23:00:00 16.6 11 Sudoeste 16 Oeste 0 -- -- 100
2019-11-25 22:00:00 16.7 9 Sudoeste 14 Oeste 0 -- -- 99
2019-11-25 21:00:00 16.7 11 Oeste 17 Oeste 0 -- -- 98
2019-11-25 20:00:00 16.7 13 Oeste 16 Oeste 0 -- -- 97
2019-11-25 19:00:00 16.7 8 Sudoeste 16 Sudoeste 0 -- -- 96
2019-11-25 18:00:00 17.1 10 Sudoeste 14 Sur 0 -- -- 94
2019-11-25 17:00:00 17.7 6 Sudoeste 20 Sudoeste 0 -- -- 93
2019-11-25 16:00:00 18.5 16 Sudoeste 19 Sudoeste 0 -- -- 89
2019-11-25 15:00:00 17.6 15 Sudoeste 19 Sudoeste 0 -- -- 93
2019-11-25 14:00:00 16.8 13 Oeste 23 Sudoeste 0 -- -- 93
2019-11-25 13:00:00 17.6 17 Sudoeste 22 Sudoeste 0 -- -- 92
2019-11-25 12:00:00 17.7 17 Sudoeste 20 Sudoeste 0 -- -- 92
2019-11-25 11:00:00 16.2 15 Sudoeste 20 Sudoeste 0 -- -- 100
2019-11-25 10:00:00 12.6 3 Nordeste 9 Norte 0 -- -- 100
2019-11-25 09:00:00 11.1 6 Norte 13 Norte 0 -- -- 100
2019-11-25 08:00:00 10.5 7 Norte 14 Norte 0 -- -- 100
2019-11-25 07:00:00 10 8 Norte 14 Nordeste 0 -- -- 100
2019-11-25 06:00:00 9.9 8 Norte 14 Norte 0 -- -- 100
2019-11-25 05:00:00 9.3 8 Nordeste 11 Norte 0 -- -- 100
2019-11-25 04:00:00 9.6 8 Norte 12 Nordeste 0 -- -- 100
2019-11-25 03:00:00 9.8 8 Norte 11 Norte 0 -- -- 100
2019-11-25 02:00:00 10.2 7 Norte 10 Norte 0 -- -- 100
2019-11-25 01:00:00 10.5 8 Norte 11 Norte 0 -- -- 99
2019-11-25 00:00:00 11 6 Norte 10 Norte 0 -- -- 98
2019-11-24 23:00:00 11.5 3 Nordeste 8 Nordeste 0 -- -- 96
2019-11-24 22:00:00 12.1 3 Sudoeste 8 Oeste 0 -- -- 96
2019-11-24 21:00:00 12.2 6 Este 10 Este 0 -- -- 94
2019-11-24 20:00:00 13.4 2 Noroeste 9 Oeste 0 -- -- 89
2019-11-24 19:00:00 13.9 7 Oeste 11 Noroeste 0 -- -- 86
2019-11-24 18:00:00 15 10 Oeste 18 Oeste 0 -- -- 84
2019-11-24 17:00:00 16.2 15 Oeste 21 Oeste 0 -- -- 79
2019-11-24 16:00:00 17.3 13 Noroeste 24 Oeste 0 -- -- 65
2019-11-24 15:00:00 17.2 14 Oeste 28 Oeste 0 -- -- 64
2019-11-24 14:00:00 16.9 16 Oeste 22 Oeste 0 -- -- 63
2019-11-24 13:00:00 16.8 11 Noroeste 17 Noroeste 0 -- -- 73
2019-11-24 12:00:00 16.4 4 Sudoeste 9 Nordeste 0 -- -- 84
2019-11-24 11:00:00 12.6 6 Nordeste 9 Nordeste 0 -- -- 96
2019-11-24 10:00:00 10.4 3 Norte 11 Norte 0 -- -- 100
2019-11-24 09:00:00 8.2 7 Norte 12 Norte 0 -- -- 100
2019-11-24 08:00:00 8.4 5 Norte 9 Este 0 -- -- 100
2019-11-24 07:00:00 9.3 5 Nordeste 8 Este 0 -- -- 100
2019-11-24 06:00:00 9.3 5 Nordeste 8 Nordeste 0 -- -- 100
2019-11-24 05:00:00 10.2 0 Calma 5 Norte 0 -- -- 100
2019-11-24 04:00:00 10.4 0 Calma 14 Nordeste 0 -- -- 98
2019-11-24 03:00:00 11.1 11 Nordeste 15 Nordeste 0 -- -- 97
2019-11-24 02:00:00 11.5 6 Norte 10 Nordeste 0 -- -- 97
2019-11-24 01:00:00 12 7 Nordeste 11 Noroeste 0 -- -- 95
2019-11-24 00:00:00 13.2 5 Norte 18 Noroeste 0 -- -- 89
2019-11-23 23:00:00 14 14 Noroeste 21 Noroeste 0 -- -- 91
2019-11-23 22:00:00 14 12 Noroeste 17 Noroeste 0 -- -- 91
2019-11-23 21:00:00 14.2 10 Noroeste 22 Noroeste 0 -- -- 89
2019-11-23 20:00:00 14.5 15 Noroeste 23 Oeste 0 -- -- 86
2019-11-23 19:00:00 14.5 17 Oeste 24 Oeste 0 -- -- 85
2019-11-23 18:00:00 15.5 17 Noroeste 32 Oeste 0 -- -- 80
2019-11-23 17:00:00 16.5 26 Noroeste 38 Oeste 0 -- -- 74
2019-11-23 16:00:00 17 23 Noroeste 39 Oeste 0 -- -- 70
2019-11-23 15:00:00 17.1 24 Noroeste 38 Noroeste 0 -- -- 71
2019-11-23 14:00:00 17.1 23 Noroeste 40 Noroeste 0 -- -- 72
2019-11-23 13:00:00 16.9 26 Noroeste 40 Noroeste 0 -- -- 72
2019-11-23 12:00:00 16.4 22 Noroeste 40 Noroeste 0 -- -- 78
2019-11-23 11:00:00 15.5 25 Noroeste 37 Noroeste 0 -- -- 84
2019-11-23 10:00:00 15.2 20 Noroeste 30 Noroeste 0 -- -- 84
2019-11-23 09:00:00 13.4 16 Oeste 29 Noroeste 0 -- -- 93
2019-11-23 08:00:00 13.2 20 Noroeste 36 Noroeste 0 -- -- 92
2019-11-23 07:00:00 14.6 24 Noroeste 47 Noroeste 0.2 -- -- 94
2019-11-23 06:00:00 16.1 19 Oeste 34 Oeste 0 -- -- 89
2019-11-23 05:00:00 16 17 Noroeste 28 Oeste 0 -- -- 89
2019-11-23 04:00:00 16 19 Oeste 36 Oeste 0 -- -- 85
2019-11-23 03:00:00 16.1 21 Noroeste 36 Oeste 0 -- -- 88
2019-11-23 02:00:00 15.9 19 Noroeste 36 Noroeste 0 -- -- 90
2019-11-23 01:00:00 16.2 17 Oeste 29 Noroeste 0 -- -- 92
2019-11-23 00:00:00 16.2 18 Oeste 30 Oeste 0 -- -- 94
2019-11-22 23:00:00 16.1 11 Noroeste 27 Noroeste 0 -- -- 94
2019-11-22 22:00:00 16.3 21 Noroeste 44 Noroeste 0 -- -- 94
2019-11-22 21:00:00 16.5 28 Noroeste 69 Sudoeste 2 -- -- 100
2019-11-22 20:00:00 17.4 45 Sudoeste 64 Oeste 1.2 -- -- 100
2019-11-22 19:00:00 17.5 44 Oeste 61 Sudoeste 0 -- -- 100
2019-11-22 18:00:00 17.6 40 Oeste 51 Oeste 0 -- -- 100
2019-11-22 17:00:00 17.5 33 Sudoeste 42 Sudoeste 0 -- -- 100
2019-11-22 16:00:00 17.4 34 Sudoeste 41 Sudoeste 0 -- -- 100
2019-11-22 15:00:00 17.2 36 Sudoeste 49 Sudoeste 0 -- -- 100
2019-11-22 14:00:00 16.9 41 Sudoeste 52 Sudoeste 0 -- -- 100
2019-11-22 13:00:00 16.7 38 Sudoeste 51 Sudoeste 0.2 -- -- 100
2019-11-22 12:00:00 16.7 34 Sudoeste 44 Sudoeste 0 -- -- 100
2019-11-22 11:00:00 16.7 36 Sudoeste 49 Sur 0 -- -- 100
2019-11-22 10:00:00 16 41 Sudoeste 51 Sudoeste 0.2 -- -- 100
2019-11-22 09:00:00 15.8 39 Sur 55 Sudoeste 0.4 -- -- 100
2019-11-22 08:00:00 15.5 48 Sudoeste 58 Sur 1.8 -- -- 100
2019-11-22 07:00:00 16.1 17 Sudoeste 44 Oeste 1.2 -- -- 100
2019-11-22 06:00:00 16.1 30 Oeste 42 Oeste 3.4 -- -- 100
2019-11-22 05:00:00 16.3 23 Oeste 39 Oeste 5.6 -- -- 100
2019-11-22 04:00:00 16.2 30 Sudoeste 40 Sudoeste 0 -- -- 100
2019-11-22 03:00:00 15.8 29 Sudoeste 40 Sudoeste 0 -- -- 100
2019-11-22 02:00:00 16.1 27 Sudoeste 33 Sudoeste 0 -- -- 100
2019-11-22 01:00:00 15.8 25 Sudoeste 31 Sudoeste 0.2 -- -- 100
2019-11-22 00:00:00 15.7 25 Sudoeste 33 Sudoeste 0 -- -- 100
2019-11-21 23:00:00 15.7 29 Sudoeste 40 Sudoeste 0 -- -- 100
2019-11-21 22:00:00 15.8 26 Sudoeste 30 Sudoeste 0 -- -- 100
2019-11-21 21:00:00 15.5 11 Sudoeste 13 Sudoeste 0 -- -- 100
2019-11-21 20:00:00 15.4 10 Sudoeste 18 Sudoeste 0 -- -- 100
2019-11-21 19:00:00 15.4 17 Sudoeste 24 Sudoeste 0 -- -- 100
2019-11-21 18:00:00 15.4 17 Sudoeste 22 Sudoeste 0 -- -- 100
2019-11-21 17:00:00 15.5 14 Sudoeste 27 Sudoeste 1.2 -- -- 100
2019-11-21 16:00:00 15.3 21 Oeste 43 Sudoeste 4.4 -- -- 100
2019-11-21 15:00:00 15.5 31 Sudoeste 43 Sudoeste 13.4 -- -- 100
2019-11-21 14:00:00 15.5 32 Sudoeste 42 Sudoeste 3.4 -- -- 100
2019-11-21 13:00:00 15.7 29 Sudoeste 44 Sudoeste 0.2 -- -- 100
2019-11-21 12:00:00 15.8 31 Sudoeste 38 Sudoeste 1.6 -- -- 100
2019-11-21 11:00:00 15.5 31 Sudoeste 58 Sudoeste 6.6 -- -- 100
2019-11-21 10:00:00 15.4 27 Sur 33 Sur 0 -- -- 100
2019-11-21 09:00:00 15.2 26 Sur 35 Sur 0.4 -- -- 100
2019-11-21 08:00:00 -- -- -- -- -- -- -- -- --
2019-11-21 07:00:00 15.3 30 Sudoeste 37 Sudoeste 0 -- -- 100
2019-11-21 06:00:00 15.1 31 Sudoeste 40 Sudoeste 0.2 -- -- 100
2019-11-21 05:00:00 14.9 33 Sudoeste 40 Sudoeste 0 -- -- 100
2019-11-21 04:00:00 15 26 Sudoeste 43 Sudoeste 0.2 -- -- 100
2019-11-21 03:00:00 14.9 27 Sudoeste 34 Sudoeste 2 -- -- 100
2019-11-21 02:00:00 14.8 28 Sudoeste 33 Sudoeste 0.8 -- -- 100
2019-11-21 01:00:00 14.9 21 Sur 25 Sur 0 -- -- 100
2019-11-21 00:00:00 12 2 Este 9 Nordeste 0 -- -- 100
2019-11-20 23:00:00 11.9 6 Norte 8 Norte 0 -- -- 98
2019-11-20 22:00:00 14 0 Calma 13 Sudoeste 0 -- -- 96
2019-11-20 21:00:00 14.5 12 Sur 18 Sur 0 -- -- 98
2019-11-20 20:00:00 14.2 15 Sur 23 Sur 0 -- -- 96
2019-11-20 19:00:00 14.1 20 Sur 30 Sur 0 -- -- 97
2019-11-20 18:00:00 14.5 26 Sur 44 Sur 0 -- -- 95
2019-11-20 17:00:00 14.7 34 Sur 52 Sur 0 -- -- 92
2019-11-20 16:00:00 13.6 40 Sur 54 Sur 0.4 -- -- 95
2019-11-20 15:00:00 13.7 41 Sur 63 Sudoeste 0 -- -- 95
2019-11-20 14:00:00 13.7 51 Sudoeste 63 Sur 1.4 -- -- 98
2019-11-20 13:00:00 14.2 42 Sur 52 Sur 0.2 -- -- 94
2019-11-20 12:00:00 14.4 40 Sur 49 Sur 0.2 -- -- 92
2019-11-20 11:00:00 14.4 34 Sur 49 Sudoeste 0.4 -- -- 90
2019-11-20 10:00:00 14.4 37 Sudoeste 46 Sudoeste 0 -- -- 89
2019-11-20 09:00:00 14.1 33 Sudoeste 39 Sur 0 -- -- 94
2019-11-20 08:00:00 8.8 10 Noroeste 25 Sudoeste 0 -- -- 100
2019-11-20 07:00:00 7.5 9 Norte 14 Norte 0 -- -- 100
2019-11-20 06:00:00 6.8 9 Norte 13 Norte 0 -- -- 100
2019-11-20 05:00:00 7.1 10 Nordeste 13 Nordeste 0 -- -- 100
2019-11-20 04:00:00 6.9 8 Norte 12 Norte 0 -- -- 99
2019-11-20 03:00:00 7.4 8 Norte 12 Norte 0 -- -- 98
2019-11-20 02:00:00 7.2 8 Norte 12 Norte 0 -- -- 96
2019-11-20 01:00:00 8.4 5 Nordeste 10 Norte 0 -- -- 94
2019-11-20 00:00:00 9.2 8 Norte 9 Norte 0 -- -- 92
2019-11-19 23:00:00 10.2 7 Nordeste 9 Nordeste 0 -- -- 90
2019-11-19 22:00:00 11.9 6 Norte 11 Noroeste 0 -- -- 84
2019-11-19 21:00:00 12.7 8 Noroeste 12 Noroeste 0 -- -- 84
2019-11-19 20:00:00 14.4 5 Norte 11 Sudoeste 0 -- -- 86
2019-11-19 19:00:00 15.2 10 Sudoeste 15 Sudoeste 0 -- -- 87
2019-11-19 18:00:00 15.4 12 Sudoeste 14 Sudoeste 0 -- -- 84
2019-11-19 17:00:00 15.5 11 Sudoeste 18 Sudoeste 0 -- -- 83
2019-11-19 16:00:00 15.6 14 Sudoeste 20 Sudoeste 0 -- -- 81
2019-11-19 15:00:00 15.9 15 Sudoeste 23 Sudoeste 0 -- -- 80
2019-11-19 14:00:00 16.2 19 Sudoeste 24 Sudoeste 0 -- -- 80
2019-11-19 13:00:00 16.2 21 Sudoeste 26 Sudoeste 0 -- -- 81
2019-11-19 12:00:00 15.6 19 Sudoeste 22 Sudoeste 0 -- -- 85
2019-11-19 11:00:00 13.5 13 Sudoeste 17 Sudoeste 0 -- -- 100
2019-11-19 10:00:00 8.9 6 Norte 13 Nordeste 0 -- -- 100
2019-11-19 09:00:00 7.5 10 Nordeste 14 Norte 0 -- -- 100
2019-11-19 08:00:00 7.6 8 Nordeste 12 Nordeste 0 -- -- 100
2019-11-19 07:00:00 7.2 9 Norte 14 Norte 0 -- -- 100
2019-11-19 06:00:00 6.9 8 Norte 12 Norte 0 -- -- 100
2019-11-19 05:00:00 6.8 9 Norte 12 Norte 0 -- -- 100
2019-11-19 04:00:00 7 8 Norte 13 Norte 0 -- -- 100
2019-11-19 03:00:00 7.2 8 Nordeste 12 Nordeste 0 -- -- 100
2019-11-19 02:00:00 7.8 9 Norte 13 Nordeste 0 -- -- 98
2019-11-19 01:00:00 8.4 8 Norte 12 Norte 0 -- -- 97
2019-11-19 00:00:00 9.6 8 Nordeste 9 Nordeste 0 -- -- 94
2019-11-18 23:00:00 11.2 0 Calma 9 Sudeste 0 -- -- 91
2019-11-18 22:00:00 11.8 2 Sur 15 Noroeste 0 -- -- 88
2019-11-18 21:00:00 12 9 Noroeste 17 Noroeste 0 -- -- 87
2019-11-18 20:00:00 12 3 Noroeste 16 Oeste 0 -- -- 82
2019-11-18 19:00:00 13 9 Oeste 19 Noroeste 0 -- -- 81
2019-11-18 18:00:00 14.3 13 Noroeste 23 Noroeste 0 -- -- 75
2019-11-18 17:00:00 15.8 16 Noroeste 22 Noroeste 0 -- -- 71
2019-11-18 16:00:00 16.3 13 Noroeste 28 Noroeste 0 -- -- 66
2019-11-18 15:00:00 15.8 16 Noroeste 30 Noroeste 0 -- -- 71
2019-11-18 14:00:00 15.9 11 Noroeste 26 Noroeste 0 -- -- 69
2019-11-18 13:00:00 15.3 13 Noroeste 23 Noroeste 0 -- -- 71
2019-11-18 12:00:00 14 14 Norte 31 Noroeste 0 -- -- 72
2019-11-18 11:00:00 13 16 Norte 28 Noroeste 0 -- -- 78
2019-11-18 10:00:00 11.9 16 Norte 28 Norte 0 -- -- 80
2019-11-18 09:00:00 10.7 14 Norte 28 Noroeste 0 -- -- 85
2019-11-18 08:00:00 10.6 21 Noroeste 34 Noroeste 0 -- -- 86
2019-11-18 07:00:00 11 10 Norte 40 Norte 0 -- -- 84
2019-11-18 06:00:00 12.3 21 Noroeste 41 Noroeste 0 -- -- 80
2019-11-18 05:00:00 13.6 21 Noroeste 41 Noroeste 0.2 -- -- 91
2019-11-18 04:00:00 14.9 30 Oeste 59 Oeste 3.4 -- -- 98
2019-11-18 03:00:00 15.9 22 Oeste 32 Oeste 1 -- -- 97
2019-11-18 02:00:00 15.9 17 Oeste 27 Oeste 0.2 -- -- 98
2019-11-18 01:00:00 15.9 21 Oeste 31 Oeste 0.2 -- -- 97
2019-11-18 00:00:00 15.8 22 Oeste 30 Oeste 0 -- -- 98
2019-11-17 23:00:00 15.8 16 Oeste 28 Oeste 0 -- -- 99
2019-11-17 22:00:00 15.8 25 Oeste 36 Oeste 0 -- -- 99
2019-11-17 21:00:00 16 23 Sudoeste 39 Sudoeste 0 -- -- 99
2019-11-17 20:00:00 15.9 31 Sudoeste 45 Sudoeste 0 -- -- 99
2019-11-17 19:00:00 15.9 37 Sudoeste 45 Sudoeste 0 -- -- 99
2019-11-17 18:00:00 15.8 31 Sudoeste 39 Sudoeste 0 -- -- 99
2019-11-17 17:00:00 15.5 16 Sudoeste 36 Oeste 0 -- -- 100
2019-11-17 16:00:00 14.6 34 Sudoeste 47 Sudoeste 3 -- -- 100
2019-11-17 15:00:00 14.7 36 Sudoeste 52 Sudoeste 0.2 -- -- 94
2019-11-17 14:00:00 15 41 Sudoeste 50 Sudoeste 0 -- -- 88
2019-11-17 13:00:00 15 38 Sudoeste 45 Sudoeste 0 -- -- 87
2019-11-17 12:00:00 14.4 31 Sudoeste 37 Sudoeste 0 -- -- 83
2019-11-17 11:00:00 9.5 5 Norte 12 Nordeste 0 -- -- 94
2019-11-17 10:00:00 7.6 9 Norte 15 Norte 0 -- -- 98
2019-11-17 09:00:00 6.4 7 Norte 12 Norte 0 -- -- 100
2019-11-17 08:00:00 5.2 8 Nordeste 12 Norte 0 -- -- 100
2019-11-17 07:00:00 5.4 8 Nordeste 10 Norte 0 -- -- 99
2019-11-17 06:00:00 5.7 7 Norte 15 Norte 0 -- -- 99
2019-11-17 05:00:00 5.5 8 Norte 15 Nordeste 0 -- -- 98
2019-11-17 04:00:00 5.6 10 Norte 15 Norte 0 -- -- 97
2019-11-17 03:00:00 5.3 9 Nordeste 15 Nordeste 0 -- -- 97
2019-11-17 02:00:00 5.5 8 Norte 12 Norte 0 -- -- 96
2019-11-17 01:00:00 5.5 9 Nordeste 12 Norte 0 -- -- 94
2019-11-17 00:00:00 6.2 8 Norte 10 Norte 0 -- -- 93
2019-11-16 23:00:00 8.2 8 Norte 11 Norte 0 -- -- 87
2019-11-16 22:00:00 9.4 3 Este 8 Este 0 -- -- 82
2019-11-16 21:00:00 10.8 0 Calma 9 Oeste 0 -- -- 75
2019-11-16 20:00:00 10.6 4 Noroeste 10 Oeste 0 -- -- 77
2019-11-16 19:00:00 11.1 7 Noroeste 15 Noroeste 0 -- -- 73
2019-11-16 18:00:00 12.9 12 Noroeste 23 Noroeste 0 -- -- 66
2019-11-16 17:00:00 13.8 18 Noroeste 28 Noroeste 0 -- -- 62
2019-11-16 16:00:00 14.2 21 Oeste 33 Oeste 0 -- -- 64
2019-11-16 15:00:00 13.5 27 Oeste 35 Oeste 0 -- -- 70
2019-11-16 14:00:00 14.2 10 Noroeste 26 Oeste 0 -- -- 59
2019-11-16 13:00:00 14.4 11 Noroeste 18 Noroeste 0 -- -- 55
2019-11-16 12:00:00 12.8 6 Sudoeste 13 Sudoeste 0 -- -- 66
2019-11-16 11:00:00 9.7 6 Nordeste 14 Norte 0 -- -- 75
2019-11-16 10:00:00 7.6 9 Norte 17 Nordeste 0 -- -- 84
2019-11-16 09:00:00 5.5 9 Nordeste 13 Nordeste 0 -- -- 92
2019-11-16 08:00:00 5.3 8 Nordeste 14 Norte 0 -- -- 90
2019-11-16 07:00:00 5.6 10 Nordeste 18 Norte 0 -- -- 89
2019-11-16 06:00:00 6.8 11 Nordeste 15 Nordeste 0 -- -- 84
2019-11-16 05:00:00 7.4 8 Norte 12 Norte 0 -- -- 81
2019-11-16 04:00:00 8 7 Norte 12 Norte 0 -- -- 76
2019-11-16 03:00:00 8.3 6 Norte 14 Noroeste 0 -- -- 75
2019-11-16 02:00:00 9.3 10 Noroeste 15 Norte 0 -- -- 70
2019-11-16 01:00:00 10.3 13 Noroeste 21 Noroeste 0 -- -- 67
2019-11-16 00:00:00 10.5 9 Noroeste 17 Noroeste 0 -- -- 68
2019-11-15 23:00:00 10.4 6 Norte 11 Noroeste 0 -- -- 67
2019-11-15 22:00:00 11.1 7 Noroeste 17 Noroeste 0 -- -- 63
2019-11-15 21:00:00 11.6 10 Noroeste 24 Noroeste 0 -- -- 61
2019-11-15 20:00:00 11.9 16 Noroeste 24 Noroeste 0 -- -- 61
2019-11-15 19:00:00 12.2 13 Noroeste 32 Noroeste 0 -- -- 59
2019-11-15 18:00:00 12.9 15 Noroeste 35 Noroeste 0 -- -- 58
2019-11-15 17:00:00 14.4 23 Noroeste 46 Noroeste 0 -- -- 54
2019-11-15 16:00:00 14.6 24 Noroeste 45 Noroeste 0 -- -- 55
2019-11-15 15:00:00 14.3 28 Noroeste 46 Norte 0 -- -- 53
2019-11-15 14:00:00 14.4 26 Noroeste 52 Noroeste 0 -- -- 57
2019-11-15 13:00:00 14.1 28 Noroeste 46 Noroeste 0 -- -- 56
2019-11-15 12:00:00 13.9 26 Noroeste 42 Noroeste 0 -- -- 62
2019-11-15 11:00:00 12.9 22 Noroeste 37 Noroeste 0 -- -- 65
2019-11-15 10:00:00 12.2 19 Noroeste 31 Noroeste 0 -- -- 66
2019-11-15 09:00:00 11 11 Noroeste 19 Noroeste 0 -- -- 76
2019-11-15 08:00:00 9.7 4 Este 9 Este 0 -- -- 86
2019-11-15 07:00:00 10.7 6 Norte 23 Norte 0 -- -- 76
2019-11-15 06:00:00 10.7 8 Norte 18 Norte 0 -- -- 79
2019-11-15 05:00:00 11.7 9 Norte 21 Norte 0 -- -- 74
2019-11-15 04:00:00 12.4 15 Noroeste 24 Norte 0 -- -- 74
2019-11-15 03:00:00 12.5 13 Noroeste 25 Noroeste 0 -- -- 79
2019-11-15 02:00:00 12.3 14 Noroeste 23 Noroeste 0 -- -- 77
2019-11-15 01:00:00 12.4 12 Noroeste 20 Noroeste 0 -- -- 78
2019-11-15 00:00:00 12.5 9 Noroeste 24 Noroeste 0 -- -- 79
2019-11-14 23:00:00 12.7 14 Noroeste 25 Noroeste 0 -- -- 77
2019-11-14 22:00:00 12.5 15 Noroeste 33 Noroeste 0 -- -- 78
2019-11-14 21:00:00 12.9 22 Noroeste 39 Noroeste 0 -- -- 75
2019-11-14 20:00:00 12.6 13 Noroeste 24 Norte 0 -- -- 83
2019-11-14 19:00:00 13 6 Norte 25 Noroeste 0 -- -- 82
2019-11-14 18:00:00 13.6 19 Noroeste 40 Noroeste 0 -- -- 78
2019-11-14 17:00:00 13.6 23 Noroeste 44 Noroeste 0 -- -- 80
2019-11-14 16:00:00 13.9 23 Noroeste 40 Norte 0 -- -- 84
2019-11-14 15:00:00 12.9 23 Noroeste -- -- -- -- -- 94
2019-11-14 14:00:00 -- 19 Noroeste 45 Noroeste 1 -- -- --
2019-11-14 13:00:00 15.1 31 Noroeste 53 Oeste 0.8 -- -- 91
2019-11-14 12:00:00 17.1 26 Oeste 38 Oeste 0 -- -- 84
2019-11-14 11:00:00 16.8 24 Oeste 30 Oeste 0 -- -- 81
2019-11-14 10:00:00 16.2 22 Oeste 30 Oeste 0 -- -- 82
2019-11-14 09:00:00 14.7 11 Oeste 24 Noroeste 0 -- -- 82
2019-11-14 08:00:00 14.2 14 Norte 23 Norte 0 -- -- 82
2019-11-14 07:00:00 13.9 13 Norte 24 Norte 0 -- -- 83
2019-11-14 06:00:00 14.1 14 Norte 25 Noroeste 0 -- -- 84
2019-11-14 05:00:00 14.4 15 Noroeste 24 Norte 0 -- -- 91
2019-11-14 04:00:00 14.6 16 Norte 28 Noroeste 0 -- -- 93
2019-11-14 03:00:00 15.1 15 Noroeste 29 Noroeste 0 -- -- 94
2019-11-14 02:00:00 16.7 18 Noroeste 26 Oeste 0 -- -- 95
2019-11-14 01:00:00 16.6 15 Oeste 26 Oeste 0 -- -- 95
2019-11-14 00:00:00 16.5 13 Oeste 24 Noroeste 0 -- -- 93
2019-11-13 23:00:00 16.2 13 Noroeste 17 Oeste 0 -- -- 95
2019-11-13 22:00:00 16.2 9 Oeste 18 Oeste 0 -- -- 96
2019-11-13 21:00:00 16.7 11 Oeste 21 Oeste 0 -- -- 96
2019-11-13 20:00:00 17 9 Oeste 18 Oeste 0 -- -- 95
2019-11-13 19:00:00 17.2 14 Oeste 20 Oeste 0 -- -- 97
2019-11-13 18:00:00 17.5 15 Oeste 24 Oeste 0 -- -- 95
2019-11-13 17:00:00 18 17 Oeste 27 Oeste 0 -- -- 91
2019-11-13 16:00:00 18.5 22 Oeste 31 Oeste 0 -- -- 89
2019-11-13 15:00:00 18.4 17 Oeste 41 Noroeste 0 -- -- 85
2019-11-13 14:00:00 18.4 19 Oeste 31 Oeste 0 -- -- 81
2019-11-13 13:00:00 18.4 20 Oeste 37 Oeste 0 -- -- 79
2019-11-13 12:00:00 17.7 19 Oeste 28 Oeste 0 -- -- 92
2019-11-13 11:00:00 18 21 Oeste 30 Noroeste 0 -- -- 88
2019-11-13 10:00:00 17.1 17 Noroeste 26 Oeste 0.2 -- -- 93
2019-11-13 09:00:00 15.9 6 Oeste 21 Noroeste 0 -- -- 99
2019-11-13 08:00:00 15.8 14 Oeste 20 Oeste 0.6 -- -- 98
2019-11-13 07:00:00 16.1 11 Oeste 27 Oeste 0 -- -- 94
2019-11-13 06:00:00 15.8 12 Oeste 20 Oeste 0 -- -- 92
2019-11-13 05:00:00 15.2 17 Noroeste 22 Noroeste 0 -- -- 92
2019-11-13 04:00:00 14.9 11 Noroeste 19 Noroeste 0 -- -- 90
2019-11-13 03:00:00 15 12 Noroeste 23 Noroeste 0 -- -- 86
2019-11-13 02:00:00 13.8 9 Norte 16 Norte 0 -- -- 90
2019-11-13 01:00:00 13.9 8 Norte 15 Noroeste 0 -- -- 88
2019-11-13 00:00:00 13.8 5 Sudeste 15 Noroeste 0 -- -- 85
2019-11-12 23:00:00 15.1 9 Noroeste 24 Noroeste 0 -- -- 81
2019-11-12 22:00:00 15.7 16 Noroeste 25 Noroeste 0 -- -- 85
2019-11-12 21:00:00 15.8 17 Noroeste 24 Oeste 0 -- -- 83
2019-11-12 20:00:00 15.5 15 Oeste 26 Oeste 0 -- -- 77
2019-11-12 19:00:00 15.7 14 Oeste 23 Oeste 0 -- -- 77
2019-11-12 18:00:00 16.9 14 Noroeste 33 Noroeste 0 -- -- 69
2019-11-12 17:00:00 17.5 23 Noroeste 31 Oeste 0 -- -- 69
2019-11-12 16:00:00 17.9 18 Oeste 30 Oeste 0 -- -- 75
2019-11-12 15:00:00 17.9 19 Oeste 33 Oeste 0 -- -- 78
2019-11-12 14:00:00 19 15 Noroeste 26 Oeste 0 -- -- 71
2019-11-12 13:00:00 18.6 12 Oeste 22 Noroeste 0 -- -- 72
2019-11-12 12:00:00 17.8 11 Sudoeste 19 Nordeste 0 -- -- 79
2019-11-12 11:00:00 16 10 Norte 18 Norte 0 -- -- 79
2019-11-12 10:00:00 14.1 8 Noroeste 19 Norte 0 -- -- 89
2019-11-12 09:00:00 12.1 9 Norte 18 Norte 0 -- -- 96
2019-11-12 08:00:00 12 4 Este 25 Norte 0 -- -- 95
2019-11-12 07:00:00 11.5 3 Norte 13 Norte 0 -- -- 98
2019-11-12 06:00:00 11.8 3 Este 12 Nordeste 0 -- -- 95
2019-11-12 05:00:00 13 5 Nordeste 14 Nordeste 0 -- -- 94
2019-11-12 04:00:00 13.6 12 Nordeste 22 Nordeste 0 -- -- 93
2019-11-12 03:00:00 14.2 9 Norte 18 Nordeste 0 -- -- 94
2019-11-12 02:00:00 15 10 Norte 19 Norte 0 -- -- 94
2019-11-12 01:00:00 15.9 4 Norte 21 Noroeste 0 -- -- 97
2019-11-12 00:00:00 16.8 15 Noroeste 24 Noroeste 0 -- -- 98
2019-11-11 23:00:00 17 14 Noroeste 26 Oeste 0 -- -- 96
2019-11-11 22:00:00 17.1 16 Noroeste 25 Noroeste 0 -- -- 96
2019-11-11 21:00:00 17.3 10 Noroeste 23 Oeste 0 -- -- 97
2019-11-11 20:00:00 17.2 9 Oeste 18 Oeste 0 -- -- 95
2019-11-11 19:00:00 17.2 11 Oeste 21 Noroeste 0 -- -- 93
2019-11-11 18:00:00 17.2 13 Noroeste 21 Oeste 0 -- -- 91
2019-11-11 17:00:00 17.1 15 Oeste 21 Sudoeste 0 -- -- 94
2019-11-11 16:00:00 17.7 13 Noroeste 23 Noroeste 0 -- -- 90
2019-11-11 15:00:00 17.3 15 Noroeste 29 Noroeste 0 -- -- 92
2019-11-11 14:00:00 16.7 12 Oeste 19 Noroeste 0 -- -- 96
2019-11-11 13:00:00 15.7 12 Oeste 16 Oeste 0 -- -- 98
2019-11-11 12:00:00 14.7 6 Oeste 10 Sudoeste 0 -- -- 98
2019-11-11 11:00:00 14.3 9 Sudoeste 11 Sudoeste 0 -- -- 98
2019-11-11 10:00:00 13.9 3 Noroeste 5 Norte 0 -- -- 99
2019-11-11 09:00:00 13.3 2 Norte 14 Noroeste 0 -- -- 100
2019-11-11 08:00:00 13.1 7 Norte 13 Norte 0 -- -- 100
2019-11-11 07:00:00 13.2 5 Norte 12 Noroeste 0.4 -- -- 99
2019-11-11 06:00:00 13.5 8 Norte 22 Noroeste 0 -- -- 97
2019-11-11 05:00:00 13.7 12 Noroeste 21 Noroeste 0.2 -- -- 97
2019-11-11 04:00:00 14.1 10 Noroeste 27 Noroeste 0 -- -- 91
2019-11-11 03:00:00 15.2 15 Noroeste 36 Noroeste 0 -- -- 79
2019-11-11 02:00:00 15.2 19 Noroeste 38 Noroeste 0 -- -- 80
2019-11-11 01:00:00 15.2 21 Noroeste 35 Noroeste 0 -- -- 78
2019-11-11 00:00:00 15.2 18 Noroeste 29 Noroeste 0 -- -- 76